Home > Products > Valid Products > TAF

000
FTUS44 KAMA 271700
TAFGUY
TAF
KGUY 271723Z 2718/2818 10006KT P6SM BKN120
     FM272000 22008KT P6SM BKN200
     FM281400 32008KT P6SM SKC=



000
FTUS44 KAMA 271700
TAFAMA
TAF
KAMA 271723Z 2718/2818 15010KT P6SM SCT200
     FM280000 20007KT P6SM SKC
     FM281400 34010KT P6SM SKC=



000
FTUS44 KAMA 271700
TAFDHT
TAF
KDHT 271723Z 2718/2818 VRB05KT P6SM SCT200
     FM280000 18007KT P6SM SCT100
     FM280800 32006KT P6SM SCT100=



000
FTUS44 KAMA 271500 AAA
TAFGUY
TAF AMD
KGUY 271552Z 2716/2812 10006KT P6SM BKN120
     FM272000 22008KT P6SM BKN200=



000
FTUS44 KAMA 271500 AAA
TAFGUY
TAF AMD
KGUY 271552Z 2716/2812 10006KT P6SM BKN120
     FM272000 22008KT P6SM BKN200=



000
FTUS44 KAMA 271100
TAFDHT
TAF
KDHT 271136Z 2712/2812 VRB06KT P6SM SCT200=



000
FTUS44 KAMA 271100
TAFGUY
TAF
KGUY 271136Z 2712/2812 22008KT P6SM BKN200=



000
FTUS44 KAMA 271100
TAFAMA
TAF
KAMA 271136Z 2712/2812 15010KT P6SM SCT200=



000
FTUS44 KAMA 271100
TAFGUY
TAF
KGUY 271136Z 2712/2812 22008KT P6SM BKN200=



000
FTUS44 KAMA 271100
TAFDHT
TAF
KDHT 271136Z 2712/2812 VRB06KT P6SM SCT200=



000
FTUS44 KAMA 271100
TAFAMA
TAF
KAMA 271136Z 2712/2812 15010KT P6SM SCT200=



000
FTUS44 KAMA 270500
TAFAMA
TAF
KAMA 270520Z 2706/2806 VRB03KT P6SM SCT250
     FM271200 03010KT P6SM SCT250
     FM271900 18010KT P6SM SCT250=



000
FTUS44 KAMA 270500
TAFDHT
TAF
KDHT 270520Z 2706/2806 VRB03KT P6SM SCT250
     FM271100 02008KT P6SM SCT250
     FM271800 21010KT P6SM SCT250=



000
FTUS44 KAMA 270500
TAFDHT
TAF
KDHT 270520Z 2706/2806 VRB03KT P6SM SCT250
     FM271100 02008KT P6SM SCT250
     FM271800 21010KT P6SM SCT250=



000
FTUS44 KAMA 270500
TAFGUY
TAF
KGUY 270520Z 2706/2806 01008KT P6SM BKN100
     FM271800 23010KT P6SM BKN250=



000
FTUS44 KAMA 270500
TAFAMA
TAF
KAMA 270520Z 2706/2806 VRB03KT P6SM SCT250
     FM271200 03010KT P6SM SCT250
     FM271900 18010KT P6SM SCT250=



000
FTUS44 KAMA 270500
TAFGUY
TAF
KGUY 270520Z 2706/2806 01008KT P6SM BKN100
     FM271800 23010KT P6SM BKN250=



000
FTUS44 KAMA 262300
TAFGUY
TAF
KGUY 262320Z 2700/2724 33008KT P6SM BKN100
     FM271000 03008KT P6SM SCT250
     FM271800 23010KT P6SM SCT250=



000
FTUS44 KAMA 262300
TAFDHT
TAF
KDHT 262320Z 2700/2724 34008KT P6SM SCT250
     FM271800 21010KT P6SM SCT250=



000
FTUS44 KAMA 262300
TAFDHT
TAF
KDHT 262320Z 2700/2724 34008KT P6SM SCT250
     FM271800 21010KT P6SM SCT250=



000
FTUS44 KAMA 262300
TAFAMA
TAF
KAMA 262320Z 2700/2724 24008KT P6SM FEW250
     FM271200 03010KT P6SM SCT250
     FM271800 20010KT P6SM SCT250=



000
FTUS44 KAMA 262300
TAFAMA
TAF
KAMA 262320Z 2700/2724 24008KT P6SM FEW250
     FM271200 03010KT P6SM SCT250
     FM271800 20010KT P6SM SCT250=



000
FTUS44 KAMA 262300
TAFGUY
TAF
KGUY 262320Z 2700/2724 33008KT P6SM BKN100
     FM271000 03008KT P6SM SCT250
     FM271800 23010KT P6SM SCT250=



000
FTUS44 KAMA 262000 AAA
TAFAMA
TAF AMD
KAMA 262003Z 2620/2718 31012KT P6SM FEW200
     FM270100 24007KT P6SM SCT200
     FM271600 17008KT P6SM SCT250=



000
FTUS44 KAMA 262000 AAA
TAFGUY
TAF AMD
KGUY 262002Z 2620/2718 27012G20KT P6SM SCT200
     FM270100 24004KT P6SM SCT100
     FM271600 20006KT P6SM SCT250=



000
FTUS44 KAMA 262000 AAA
TAFDHT
TAF AMD
KDHT 262002Z 2620/2718 27012G20KT P6SM SCT200
     FM270100 VRB04KT P6SM BKN200
     FM271600 22008KT P6SM SCT250=



000
FTUS44 KAMA 262000 AAA
TAFDHT
TAF AMD
KDHT 262002Z 2620/2718 27012G20KT P6SM SCT200
     FM270100 VRB04KT P6SM BKN200
     FM271600 22008KT P6SM SCT250=



000
FTUS44 KAMA 261700
TAFGUY
TAF
KGUY 261720Z 2618/2718 27007KT P6SM FEW200
     FM270100 24004KT P6SM SCT100
     FM271600 20006KT P6SM SCT250=



000
FTUS44 KAMA 261700
TAFAMA
TAF
KAMA 261720Z 2618/2718 32008KT P6SM FEW200
     FM270100 24007KT P6SM SCT200
     FM271600 17008KT P6SM SCT250=



000
FTUS44 KAMA 261700
TAFDHT
TAF
KDHT 261720Z 2618/2718 27010KT P6SM SCT200
     FM270100 VRB04KT P6SM BKN200
     FM271600 22008KT P6SM SCT250=



000
FTUS44 KAMA 261700
TAFGUY
TAF
KGUY 261720Z 2618/2718 27007KT P6SM FEW200
     FM270100 24004KT P6SM SCT100
     FM271600 20006KT P6SM SCT250=



000
FTUS44 KAMA 261700
TAFAMA
TAF
KAMA 261720Z 2618/2718 32008KT P6SM FEW200
     FM270100 24007KT P6SM SCT200
     FM271600 17008KT P6SM SCT250=



000
FTUS44 KAMA 261700
TAFDHT
TAF
KDHT 261720Z 2618/2718 27010KT P6SM SCT200
     FM270100 VRB04KT P6SM BKN200
     FM271600 22008KT P6SM SCT250=



000
FTUS44 KAMA 261100
TAFAMA
TAF
KAMA 261120Z 2612/2712 32010KT P6SM FEW200
     FM270100 24007KT P6SM SCT200=



000
FTUS44 KAMA 261100
TAFGUY
TAF
KGUY 261120Z 2612/2712 29009KT P6SM FEW200
     FM262000 30010KT P6SM SCT200
     FM270100 32005KT P6SM BKN200=



000
FTUS44 KAMA 261100
TAFDHT
TAF
KDHT 261120Z 2612/2712 30009KT P6SM FEW200
     FM261600 27010KT P6SM SCT200
     FM270100 30005KT P6SM BKN200=



000
FTUS44 KAMA 260600 AAA
TAFAMA
TAF AMD
KAMA 260656Z 2607/2706 36019KT P6SM SCT015
     FM260900 34010KT P6SM SCT070
     FM262300 28010KT P6SM SCT250=



000
FTUS44 KAMA 260600 AAA
TAFAMA
TAF AMD
KAMA 260656Z 2607/2706 36019KT P6SM SCT015
     FM260900 34010KT P6SM SCT070
     FM262300 28010KT P6SM SCT250=



000
FTUS44 KAMA 260500
TAFAMA
TAF
KAMA 260520Z 2606/2706 36017KT P6SM OVC015
     FM260900 34010KT P6SM SCT070
     FM262300 28010KT P6SM SCT250=



000
FTUS44 KAMA 260500
TAFDHT
TAF
KDHT 260520Z 2606/2706 35015KT P6SM SCT100
     FM260900 32008KT P6SM SKC
     FM261800 27012KT P6SM SCT250=



000
FTUS44 KAMA 260500
TAFGUY
TAF
KGUY 260520Z 2606/2706 34010KT P6SM SCT100
     FM261800 30012KT P6SM SCT250
     FM270100 30008KT P6SM SCT250=



000
FTUS44 KAMA 260300 AAA
TAFGUY
TAF AMD
KGUY 260316Z 2603/2624 35012KT P6SM BKN015
     FM260800 32008KT P6SM BKN100
     FM261800 29011KT P6SM SKC=



000
FTUS44 KAMA 260300 AAA
TAFGUY
TAF AMD
KGUY 260316Z 2603/2624 35012KT P6SM BKN015
     FM260800 32008KT P6SM BKN100
     FM261800 29011KT P6SM SKC=



000
FTUS44 KAMA 260300 AAB
TAFDHT
TAF AMD
KDHT 260314Z 2603/2624 36018KT P6SM OVC070
     FM260500 34008KT P6SM BKN100
     FM261800 24012KT P6SM SKC=



000
FTUS44 KAMA 260000 AAA
TAFAMA
TAF AMD
KAMA 260059Z 2601/2624 01030G40KT P6SM OVC200
      TEMPO 2601/2604 P6SM BKN020
     FM260400 01016G25KT P6SM OVC040
     FM260800 34008KT P6SM OVC070
     FM261800 29011KT P6SM SKC=



000
FTUS44 KAMA 260000 AAA
TAFDHT
TAF AMD
KDHT 260019Z 2600/2624 01027G35KT P6SM BKN100
      TEMPO 2600/2604 5SM -SHRA BR OVC015
     FM260500 34008KT P6SM BKN100
     FM261800 24012KT P6SM SKC=



000
FTUS44 KAMA 260000 AAA
TAFDHT
TAF AMD
KDHT 260019Z 2600/2624 01027G35KT P6SM BKN100
      TEMPO 2600/2604 5SM -SHRA BR OVC015
     FM260500 34008KT P6SM BKN100
     FM261800 24012KT P6SM SKC=



000
FTUS44 KAMA 252300
TAFAMA
TAF
KAMA 252320Z 2600/2624 01030G40KT P6SM OVC200
     FM260400 01016G25KT P6SM OVC100
     FM260800 34008KT P6SM OVC070
     FM261800 29011KT P6SM SKC=



000
FTUS44 KAMA 252300
TAFGUY
TAF
KGUY 252320Z 2600/2624 01028G35KT P6SM BKN100
      TEMPO 2602/2606 5SM -SHRA BR OVC015
     FM260600 32008KT P6SM BKN100
     FM261800 29011KT P6SM SKC=



000
FTUS44 KAMA 252300
TAFDHT
TAF
KDHT 252320Z 2600/2624 01027G35KT P6SM BKN100
      TEMPO 2601/2605 5SM -SHRA BR OVC015
     FM260500 34008KT P6SM BKN100
     FM261800 24012KT P6SM SKC=



000
FTUS44 KAMA 252300
TAFAMA
TAF
KAMA 252320Z 2600/2624 01030G40KT P6SM OVC200
     FM260400 01016G25KT P6SM OVC100
     FM260800 34008KT P6SM OVC070
     FM261800 29011KT P6SM SKC=



000
FTUS44 KAMA 252300
TAFGUY
TAF
KGUY 252320Z 2600/2624 01028G35KT P6SM BKN100
      TEMPO 2602/2606 5SM -SHRA BR OVC015
     FM260600 32008KT P6SM BKN100
     FM261800 29011KT P6SM SKC=



000
FTUS44 KAMA 252300
TAFDHT
TAF
KDHT 252320Z 2600/2624 01027G35KT P6SM BKN100
      TEMPO 2601/2605 5SM -SHRA BR OVC015
     FM260500 34008KT P6SM BKN100
     FM261800 24012KT P6SM SKC=



000
FTUS44 KAMA 252200 AAA
TAFGUY
TAF AMD
KGUY 252208Z 2522/2618 01030G35KT P6SM BKN120
     FM260600 33010KT P6SM SCT020 BKN050
     FM261100 29005KT P6SM SKC=



000
FTUS44 KAMA 251700
TAFDHT
TAF
KDHT 251730Z 2518/2618 36025G30KT P6SM SCT120
     FM260000 02030G38KT P6SM BKN050
     FM260700 01010KT P6SM SCT020 BKN050
     FM261200 32007KT P6SM SKC=



000
FTUS44 KAMA 251700
TAFGUY
TAF
KGUY 251730Z 2518/2618 01018G25KT P6SM BKN120
     FM260000 01028G35KT P6SM BKN060
     FM260600 33010KT P6SM SCT020 BKN050
     FM261100 29005KT P6SM SKC=



000
FTUS44 KAMA 251700
TAFAMA
TAF
KAMA 251730Z 2518/2618 32020G30KT P6SM SCT150
     FM260000 36031G42KT P6SM SCT080 BKN200
     FM260400 01019G28KT P6SM BKN050
     FM260800 34010KT P6SM SCT020
     FM261600 02007KT P6SM SKC=



000
FTUS44 KAMA 251600 AAA
TAFDHT
TAF AMD
KDHT 251616Z 2516/2612 36020G28KT P6SM SCT120
     FM260000 02022G35KT P6SM BKN050
     FM260700 34010KT P6SM SCT200=



000
FTUS44 KAMA 251600 AAA
TAFDHT
TAF AMD
KDHT 251616Z 2516/2612 36020G28KT P6SM SCT120
     FM260000 02022G35KT P6SM BKN050
     FM260700 34010KT P6SM SCT200=



000
FTUS44 KAMA 251600 AAA
TAFGUY
TAF AMD
KGUY 251611Z 2516/2612 03014KT P6SM SCT120
     FM251800 01018G25KT P6SM BKN120
     FM252200 01020G35KT P6SM BKN060
     FM260500 33010KT P6SM SCT200=



000
FTUS44 KAMA 251400 AAA
TAFAMA
TAF AMD
KAMA 251421Z 2514/2612 20010KT P6SM SCT200
     FM251600 30014KT P6SM SCT150
     FM252200 36031G42KT P6SM SCT080 BKN200
     FM260400 01019G28KT P6SM BKN050
     FM260800 34010KT P6SM SCT020=



000
FTUS44 KAMA 251100
TAFGUY
TAF
KGUY 251120Z 2512/2612 35009KT P6SM BKN200
     FM251400 36014KT P6SM SCT100 BKN200
     FM251700 01028G38KT P6SM BKN100
     FM260200 36016G26KT P6SM BKN060
     FM260500 33010KT P6SM SCT200=



000
FTUS44 KAMA 251100
TAFDHT
TAF
KDHT 251120Z 2512/2612 20010KT P6SM BKN200
     FM251400 34015KT P6SM BKN200
     FM251700 01032G41KT P6SM SCT080 BKN200
     FM260200 01020G29KT P6SM BKN060
     FM260500 34010KT P6SM SCT200=



000
FTUS44 KAMA 251100
TAFAMA
TAF
KAMA 251120Z 2512/2612 20010KT P6SM SCT200
     FM251400 26014KT P6SM SCT200
     FM252000 36031G42KT P6SM SCT080 BKN200
     FM260400 36019G28KT P6SM BKN080
     FM260800 34010KT P6SM SCT200=



000
FTUS44 KAMA 250800 AAB
TAFGUY
TAF AMD
KGUY 250837Z 2509/2606 17010KT P6SM BKN200
     FM251400 32012KT P6SM BKN250
     FM251700 01031G40KT P6SM BKN100
     FM260300 36019G28KT P6SM BKN060=



000
FTUS44 KAMA 250800 AAB
TAFGUY
TAF AMD
KGUY 250837Z 2509/2606 17010KT P6SM BKN200
     FM251400 32012KT P6SM BKN250
     FM251700 01031G40KT P6SM BKN100
     FM260300 36019G28KT P6SM BKN060=



000
FTUS44 KAMA 250700 CCA
TAFGUY
TAF COR
KGUY 250702Z 2507/2606 17015G25KT P6SM BKN200
     FM251400 32012KT P6SM BKN250
     FM251700 01031G40KT P6SM BKN100
     FM260300 36019G28KT P6SM BKN060=



000
FTUS44 KAMA 250700 AAA
TAFGUY
TAF AMD
KGUY 250700Z 2507/2606 17018KT P6SM BKN200
     FM251400 32012KT P6SM BKN250
     FM251700 01031G40KT P6SM BKN100
     FM260300 36019G28KT P6SM BKN060=



000
FTUS44 KAMA 250700 AAA
TAFGUY
TAF AMD
KGUY 250700Z 2507/2606 17018KT P6SM BKN200
     FM251400 32012KT P6SM BKN250
     FM251700 01031G40KT P6SM BKN100
     FM260300 36019G28KT P6SM BKN060=



000
FTUS44 KAMA 250500
TAFAMA
TAF
KAMA 250520Z 2506/2606 17010KT P6SM BKN250
     FM251500 24016KT P6SM BKN250
     FM252000 36031G39KT P6SM BKN200
     FM260300 36019G28KT P6SM BKN080=



000
FTUS44 KAMA 250500
TAFDHT
TAF
KDHT 250520Z 2506/2606 18010KT P6SM BKN250
     FM251400 32015KT P6SM BKN250
     FM251800 01032G41KT P6SM BKN200
     FM260300 01020G29KT P6SM BKN060=



000
FTUS44 KAMA 250500
TAFGUY
TAF
KGUY 250520Z 2506/2606 17008KT P6SM BKN250
     FM251400 32012KT P6SM BKN250
     FM251700 01031G40KT P6SM BKN100
     FM260300 36019G28KT P6SM BKN060=



000
FTUS44 KAMA 250500
TAFDHT
TAF
KDHT 250520Z 2506/2606 18010KT P6SM BKN250
     FM251400 32015KT P6SM BKN250
     FM251800 01032G41KT P6SM BKN200
     FM260300 01020G29KT P6SM BKN060=



000
FTUS44 KAMA 250500
TAFAMA
TAF
KAMA 250520Z 2506/2606 17010KT P6SM BKN250
     FM251500 24016KT P6SM BKN250
     FM252000 36031G39KT P6SM BKN200
     FM260300 36019G28KT P6SM BKN080=



000
FTUS44 KAMA 250500
TAFGUY
TAF
KGUY 250520Z 2506/2606 17008KT P6SM BKN250
     FM251400 32012KT P6SM BKN250
     FM251700 01031G40KT P6SM BKN100
     FM260300 36019G28KT P6SM BKN060=



000
FTUS44 KAMA 250300 AAA
TAFDHT
TAF AMD
KDHT 250334Z 2504/2524 17010KT P6SM SCT250
     FM251400 32015KT P6SM BKN250
     FM251800 01029G38KT P6SM BKN200=



000
FTUS44 KAMA 250300 AAA
TAFAMA
TAF AMD
KAMA 250333Z 2504/2524 16010KT P6SM FEW250
     FM251400 24011KT P6SM SCT250
     FM251700 34022G30KT P6SM BKN250
     FM252000 01028G36KT P6SM BKN200=



000
FTUS44 KAMA 242300
TAFAMA
TAF
KAMA 242320Z 2500/2524 18009KT P6SM FEW250
     FM251400 24011KT P6SM SCT250
     FM251700 34022G30KT P6SM BKN250
     FM252000 01028G36KT P6SM BKN200=



000
FTUS44 KAMA 242300
TAFGUY
TAF
KGUY 242320Z 2500/2524 18008KT P6SM SCT250
     FM251400 32010KT P6SM BKN250
     FM251700 01029G38KT P6SM BKN200=



000
FTUS44 KAMA 242300
TAFDHT
TAF
KDHT 242320Z 2500/2524 18008KT P6SM SCT250
     FM251400 32015KT P6SM BKN250
     FM251800 01029G38KT P6SM BKN200=



000
FTUS44 KAMA 242300
TAFAMA
TAF
KAMA 242320Z 2500/2524 18009KT P6SM FEW250
     FM251400 24011KT P6SM SCT250
     FM251700 34022G30KT P6SM BKN250
     FM252000 01028G36KT P6SM BKN200=



000
FTUS44 KAMA 242300
TAFGUY
TAF
KGUY 242320Z 2500/2524 18008KT P6SM SCT250
     FM251400 32010KT P6SM BKN250
     FM251700 01029G38KT P6SM BKN200=



000
FTUS44 KAMA 242300
TAFDHT
TAF
KDHT 242320Z 2500/2524 18008KT P6SM SCT250
     FM251400 32015KT P6SM BKN250
     FM251800 01029G38KT P6SM BKN200=



    US Dept of Commerce
    National Oceanic and Atmospheric Administration
    National Weather Service
    1325 East West Highway
    Silver Spring, MD 20910
    Page Author: NWS Internet Services Team
Disclaimer
Information Quality
Credits
Glossary
Privacy Policy
Freedom of Information Act (FOIA)
About Us
Career Opportunities